• Join FlightAware (Why Join?)
  • Login
  • US Flag 
Gobble Gobble! 
04:08PM EST


 

Airport Tracker/Info


-or-


 

Live Flight TrackerFlight Track Log ✈ N589H ✈ 04-Mar-2014 ✈ KSFB - KISP

Flight Track Log - Related Links

Times and Time Zones

All times are in EST time to prevent confusion due to time zone crossing. See the N589H flight status page for this flight to view local times or setup timezone preferences in your user account.

Time Position Orientation Groundspeed Altitude Reporting Facility
EST Latitude Longitude Course Direction KTS MPH feet Rate Location/Type
07:35AM 28.7833 -81.2667 270° West 168 193 700  Level Orlando TRACON
07:36AM 28.7833 -81.3167 270° West 168 193 2,100 1,920 Climbing Orlando TRACON
07:38AM 28.8294 -81.3617 319° Northwest 181 208 5,000 1,740 Climbing Jacksonville Center
07:38AM 28.8628 -81.3658 354° North 187 215 6,100 1,620 Climbing Jacksonville Center
07:39AM 28.8817 -81.3725 343° North 190 219 6,700 1,200 Climbing Jacksonville Center
07:39AM 28.9217 -81.3814 349° North 223 257 7,300 840 Climbing Jacksonville Center
07:40AM 28.9864 -81.3853 357° North 239 275 8,200 1,020 Climbing Jacksonville Center
07:41AM 29.0594 -81.3842 North 249 287 9,400 1,200 Climbing Jacksonville Center
07:42AM 29.1325 -81.3950 353° North 254 292 10,600 1,140 Climbing Jacksonville Center
07:43AM 29.2036 -81.4011 356° North 259 298 11,700 1,140 Climbing Jacksonville Center
07:44AM 29.2747 -81.4069 356° North 254 292 12,900 1,140 Climbing Jacksonville Center
07:45AM 29.3414 -81.4131 355° North 254 292 14,000 1,140 Climbing Jacksonville Center
07:46AM 29.4097 -81.3622 33° Northeast 253 291 15,200 1,200 Climbing Jacksonville Center
07:47AM 29.4864 -81.3083 31° Northeast 275 316 16,500 1,200 Climbing Jacksonville Center
07:48AM 29.5608 -81.2619 28° Northeast 289 333 17,700 960 Climbing Jacksonville Center
07:49AM 29.6353 -81.2103 31° Northeast 295 339 18,500 900 Climbing Jacksonville Center
07:50AM 29.7097 -81.1589 31° Northeast 305 351 19,500 960 Climbing Jacksonville Center
07:51AM 29.7864 -81.1072 30° Northeast 310 357 20,500 960 Climbing Jacksonville Center
07:52AM 29.8650 -81.0556 30° Northeast 315 362 21,500 960 Climbing Jacksonville Center
07:53AM 29.9436 -81.0014 31° Northeast 320 368 22,500 960 Climbing Jacksonville Center
07:54AM 30.0242 -80.9469 30° Northeast 320 368 23,500 1,020 Climbing Jacksonville Center
07:55AM 30.1047 -80.8975 28° Northeast 320 368 24,600 900 Climbing Jacksonville Center
07:56AM 30.1833 -80.8428 31° Northeast 320 368 25,400 900 Climbing Jacksonville Center
07:57AM 30.2617 -80.7883 31° Northeast 320 368 26,400 900 Climbing Jacksonville Center
07:58AM 30.3422 -80.7358 29° Northeast 325 374 27,200 660 Climbing Jacksonville Center
07:59AM 30.4247 -80.6786 31° Northeast 331 381 27,800 600 Climbing Jacksonville Center
08:00AM 30.5072 -80.6239 30° Northeast 331 381 28,500 660 Climbing Jacksonville Center
08:01AM 30.5919 -80.5686 29° Northeast 331 381 29,200 600 Climbing Jacksonville Center
08:02AM 30.6764 -80.5133 29° Northeast 331 381 29,800 600 Climbing Jacksonville Center
08:03AM 30.7547 -80.4558 32° Northeast 331 381 30,500 720 Climbing Jacksonville Center
08:04AM 30.8392 -80.3981 30° Northeast 336 387 31,300 780 Climbing Jacksonville Center
08:05AM 30.9258 -80.3425 29° Northeast 336 387 32,100 720 Climbing Jacksonville Center
08:06AM 31.0061 -80.2847 32° Northeast 336 387 32,800 660 Climbing Jacksonville Center
08:07AM 31.0925 -80.2314 28° Northeast 336 387 33,500 660 Climbing Jacksonville Center
08:08AM 31.1667 -80.1733 34° Northeast 331 381 34,200 600 Climbing Jacksonville Center
08:09AM 31.2531 -80.1197 28° Northeast 331 381 34,800 360 Climbing Jacksonville Center
08:10AM 31.3311 -80.0617 32° Northeast 331 381 35,000 60 Climbing Jacksonville Center
08:11AM 31.4175 -80.0053 29° Northeast 336 387 35,000  Level Jacksonville Center
08:12AM 31.5058 -79.9417 32° Northeast 348 400 35,000  Level Jacksonville Center
08:13AM 31.5983 -79.8778 30° Northeast 361 415 35,000  Level Jacksonville Center
08:14AM 31.6886 -79.8139 31° Northeast 372 428 35,000  Level Jacksonville Center
08:15AM 31.7831 -79.7472 31° Northeast 377 434 35,000  Level Jacksonville Center
08:16AM 31.8753 -79.6828 31° Northeast 377 434 35,000  Level Jacksonville Center
08:17AM 31.9697 -79.6183 30° Northeast 377 434 35,000  Level Jacksonville Center
08:18AM 32.0639 -79.5514 31° Northeast 382 440 35,000  Level Jacksonville Center
08:19AM 32.1603 -79.4839 31° Northeast 387 445 35,000  Level Jacksonville Center
08:20AM 32.2567 -79.4164 31° Northeast 393 452 35,000  Level Jacksonville Center
08:21AM 32.3508 -79.3492 31° Northeast 393 452 35,000  Level Jacksonville Center
08:22AM 32.4469 -79.2814 31° Northeast 393 452 35,000  Level Jacksonville Center
08:23AM 32.5453 -79.2133 30° Northeast 393 452 35,000  Level Jacksonville Center
08:24AM 32.6392 -79.1453 31° Northeast 399 459 35,000  Level Jacksonville Center
08:25AM 32.7331 -79.0747 32° Northeast 399 459 35,000  Level Jacksonville Center
08:26AM 32.8292 -79.0064 31° Northeast 399 459 35,000  Level Jacksonville Center
08:27AM 32.9253 -78.9406 30° Northeast 399 459 35,000  Level Jacksonville Center
08:28AM 33.0211 -78.8719 31° Northeast 399 459 35,000  Level Jacksonville Center
08:30AM 33.1914 -78.7475 31° Northeast 407 468 35,000  Level Washington Center
08:31AM 33.2853 -78.6764 32° Northeast 402 463 35,000  Level Washington Center
08:32AM 33.3808 -78.6078 31° Northeast 397 457 35,000  Level Washington Center
08:33AM 33.4742 -78.5414 31° Northeast 392 451 35,000  Level Washington Center
08:34AM 33.5678 -78.4725 32° Northeast 392 451 35,000  Level Washington Center
08:35AM 33.6631 -78.4036 31° Northeast 392 451 35,000  Level Washington Center
08:36AM 33.7608 -78.3319 31° Northeast 392 451 35,000  Level Washington Center
08:37AM 33.8519 -78.2647 31° Northeast 392 451 35,000  Level Washington Center
08:38AM 33.9494 -78.1953 31° Northeast 397 457 35,000  Level Washington Center
08:39AM 34.0450 -78.1258 31° Northeast 397 457 35,000  Level Washington Center
08:40AM 34.1297 -78.0631 32° Northeast 397 457 35,000  Level Washington Center
08:41AM 34.2231 -77.9881 34° Northeast 397 457 35,000  Level Washington Center
08:42AM 34.3225 -77.9181 30° Northeast 397 457 35,000  Level Washington Center
08:43AM 34.4114 -77.8500 32° Northeast 397 457 35,000  Level Washington Center
08:44AM 34.5086 -77.7772 32° Northeast 397 457 35,000  Level Washington Center
08:45AM 34.6039 -77.7064 31° Northeast 397 457 35,000  Level Washington Center
08:46AM 34.6989 -77.6358 31° Northeast 397 457 35,000  Level Washington Center
08:47AM 34.7897 -77.5647 33° Northeast 397 457 35,000  Level Washington Center
08:48AM 34.8850 -77.4886 33° Northeast 397 457 35,000  Level Washington Center
08:49AM 34.9800 -77.4172 32° Northeast 397 457 35,000  Level Washington Center
08:50AM 35.0728 -77.3483 31° Northeast 392 451 35,000  Level Washington Center
08:51AM 35.1656 -77.2767 32° Northeast 392 451 35,000  Level Washington Center
08:52AM 35.2606 -77.2047 32° Northeast 398 458 35,000  Level Washington Center
08:53AM 35.3553 -77.1328 32° Northeast 398 458 35,000  Level Washington Center
08:54AM 35.4481 -77.0581 33° Northeast 398 458 35,000  Level Washington Center
08:55AM 35.5428 -76.9858 32° Northeast 392 451 35,000  Level Washington Center
08:56AM 35.6419 -76.9058 33° Northeast 392 451 35,000  Level Washington Center
08:57AM 35.7364 -76.8331 32° Northeast 392 451 35,000  Level Washington Center
08:58AM 35.8311 -76.7603 32° Northeast 392 451 35,000  Level Washington Center
08:59AM 35.9256 -76.6897 31° Northeast 392 451 35,000  Level Washington Center
09:00AM 36.0203 -76.6142 33° Northeast 392 451 35,000  Level Washington Center
09:01AM 36.1147 -76.5381 33° Northeast 392 451 35,000  Level Washington Center
09:02AM 36.2092 -76.4672 31° Northeast 392 451 35,000  Level Washington Center
09:03AM 36.3014 -76.3908 34° Northeast 392 451 35,000  Level Washington Center
09:04AM 36.3981 -76.3172 31° Northeast 392 451 35,000  Level Washington Center
09:05AM 36.4903 -76.2431 33° Northeast 392 451 35,000  Level Washington Center
09:06AM 36.5864 -76.1661 33° Northeast 392 451 35,000  Level Washington Center
09:07AM 36.6786 -76.0917 33° Northeast 392 451 35,000  Level Washington Center
09:08AM 36.7667 -76.0222 32° Northeast 401 461 35,000  Level Washington Center
09:09AM 36.8606 -75.9450 33° Northeast 401 461 35,000  Level Washington Center
09:10AM 36.9547 -75.8700 32° Northeast 396 456 35,000  Level Washington Center
09:11AM 37.0508 -75.7950 32° Northeast 396 456 35,000  Level Washington Center
09:12AM 37.1447 -75.7169 34° Northeast 396 456 35,000  Level Washington Center
09:13AM 37.2386 -75.6414 33° Northeast 396 456 35,000  Level Washington Center
09:14AM 37.3325 -75.5631 34° Northeast 396 456 35,000  Level Washington Center
09:15AM 37.4264 -75.4872 33° Northeast 396 456 35,000  Level Washington Center
09:16AM 37.5181 -75.4086 34° Northeast 396 456 35,000  Level Washington Center
09:17AM 37.6139 -75.3322 32° Northeast 396 456 35,000  Level Washington Center
09:18AM 37.7097 -75.2531 33° Northeast 396 456 35,000  Level Washington Center
09:19AM 37.8033 -75.1767 33° Northeast 396 456 35,000  Level Washington Center
09:20AM 37.8967 -75.0969 34° Northeast 396 456 35,000  Level Washington Center
09:21AM 37.9925 -75.0200 32° Northeast 396 456 35,000  Level Washington Center
09:22AM 38.0858 -74.9375 35° Northeast 396 456 35,000  Level Washington Center
09:23AM 38.1769 -74.8575 35° Northeast 396 456 35,000 -120 Level Washington Center
09:24AM 38.2725 -74.7772 33° Northeast 396 456 34,800 -600 Descending Washington Center
09:25AM 38.3719 -74.6992 32° Northeast 401 461 33,900 -900 Descending Washington Center
09:26AM 38.4736 -74.6158 33° Northeast 413 475 33,100 -900 Descending Washington Center
09:27AM 38.5706 -74.5217 37° Northeast 425 489 32,200 -1,020 Descending Washington Center
09:28AM 38.6764 -74.4428 30° Northeast 430 495 31,100 -1,320 Descending Washington Center
09:29AM 38.7714 -74.3589 35° Northeast 430 495 29,600 -1,500 Descending Washington Center
09:30AM 38.8642 -74.2772 34° Northeast 416 479 28,100 -1,500 Descending Washington Center
09:32AM 39.0253 -74.1381 34° Northeast 390 449 25,500 -1,500 Descending New York Center
09:33AM 39.1172 -74.0594 34° Northeast 390 449 24,100 -1,500 Descending New York Center
09:34AM 39.2069 -73.9778 35° Northeast 390 449 22,600 -1,500 Descending New York Center
09:35AM 39.2986 -73.9017 33° Northeast 395 455 21,200 -1,200 Descending New York Center
09:36AM 39.3819 -73.8275 35° Northeast 378 435 20,300 -900 Descending New York Center
09:37AM 39.4631 -73.7556 34° Northeast 365 420 19,400 -960 Descending New York Center
09:38AM 39.5419 -73.6836 35° Northeast 353 406 18,400 -780 Descending New York Center
09:39AM 39.6228 -73.6169 32° Northeast 347 399 17,900 -720 Descending New York Center
09:40AM 39.6997 -73.5444 36° Northeast 341 392 17,000 -960 Descending New York Center
09:41AM 39.7761 -73.4800 33° Northeast 336 387 16,000 -1,020 Descending New York Center
09:42AM 39.8544 -73.4369 23° Northeast 322 371 15,000 -960 Descending New York Center
09:43AM 39.9403 -73.4133 12° North 310 357 14,100 -960 Descending New York Center
09:44AM 40.0306 -73.3869 13° North 300 345 13,100 -960 Descending New York Center
09:45AM 40.1039 -73.3653 13° North 294 338 12,200 -1,020 Descending New York Center
09:46AM 40.1900 -73.3442 11° North 294 338 11,100 -960 Descending New York Center
09:47AM 40.2592 -73.3222 14° North 282 325 10,300 -960 Descending New York Center
09:48AM 40.3428 -73.3036 10° North 277 319 9,200 -960 Descending New York Center
09:49AM 40.3797 -73.2931 12° North 277 319 8,800 -960 Descending Boston Center
09:50AM 40.4558 -73.2753 10° North 275 316 7,700 -1,320 Descending Boston Center
09:51AM 40.5289 -73.2750 360° North 267 307 6,200 -1,500 Descending Boston Center
09:52AM 40.5964 -73.2736 North 254 292 4,700 -1,560 Descending Boston Center
09:53AM 40.6589 -73.2681 North 240 276 3,100 -1,320 Descending Boston Center
09:54AM 40.7017 -73.2247 38° Northeast 212 244 2,100 -840 Descending Boston Center
09:55AM 40.7500 -73.1667 42° Northeast 157 181 1,500 -600 Descending New York TRACON
09:56AM 40.7667 -73.1333 57° Northeast 126 145 900 -600 Descending New York TRACON